createdAt,value
2018-02-06T00:02:01.713Z,7.77
2018-02-06T00:04:29.285Z,12.73
2018-02-06T00:06:56.852Z,9.40
2018-02-06T00:09:25.210Z,14.33
2018-02-06T00:11:52.871Z,12.27
2018-02-06T00:14:20.434Z,8.10
2018-02-06T00:16:48.020Z,16.63
2018-02-06T00:19:16.357Z,19.10
2018-02-06T00:21:43.909Z,40.10
2018-02-06T00:24:11.486Z,18.43
2018-02-06T00:26:39.800Z,33.40
2018-02-06T00:29:07.387Z,16.00
2018-02-06T00:31:34.943Z,17.80
2018-02-06T00:34:02.519Z,15.10
2018-02-06T00:36:30.102Z,16.83
2018-02-06T00:38:57.659Z,9.70
2018-02-06T00:41:25.255Z,30.97
2018-02-06T00:43:52.845Z,29.40
2018-02-06T00:46:20.387Z,32.13
2018-02-06T00:48:48.003Z,36.77
2018-02-06T00:51:15.576Z,28.67
2018-02-06T00:53:43.145Z,22.27
2018-02-06T00:56:10.707Z,23.70
2018-02-06T00:58:39.081Z,57.83
2018-02-06T01:01:06.654Z,18.57
2018-02-06T01:03:34.206Z,19.67
2018-02-06T01:06:01.824Z,22.10
2018-02-06T01:08:30.173Z,19.93
2018-02-06T01:10:57.744Z,24.57
2018-02-06T01:13:26.190Z,35.70
2018-02-06T01:15:53.764Z,26.60
2018-02-06T01:18:21.337Z,27.57
2018-02-06T01:20:48.930Z,24.90
2018-02-06T01:23:16.495Z,29.03
2018-02-06T01:25:44.071Z,61.37
2018-02-06T01:28:11.627Z,37.43
2018-02-06T01:30:39.188Z,27.37
2018-02-06T01:33:07.517Z,41.77
2018-02-06T01:35:35.136Z,47.50
2018-02-06T01:38:03.492Z,34.07
2018-02-06T01:40:31.137Z,26.37
2018-02-06T01:42:58.683Z,25.00
2018-02-06T01:45:26.230Z,33.50
2018-02-06T01:47:53.812Z,42.60
2018-02-06T01:50:21.369Z,43.27
2018-02-06T01:52:48.970Z,28.40
2018-02-06T01:55:16.556Z,26.27
2018-02-06T01:57:44.128Z,17.33
2018-02-06T02:00:11.694Z,31.03
2018-02-06T02:02:39.261Z,21.60
2018-02-06T02:05:07.637Z,29.23
2018-02-06T02:07:35.175Z,29.10
2018-02-06T02:10:02.723Z,30.50
2018-02-06T02:12:30.308Z,33.50
2018-02-06T02:14:57.864Z,36.23
2018-02-06T02:17:25.464Z,26.67
2018-02-06T02:19:53.032Z,27.80
2018-02-06T02:22:20.620Z,23.10
2018-02-06T02:24:48.187Z,24.97
2018-02-06T02:27:15.779Z,23.67
2018-02-06T02:29:43.347Z,25.47
2018-02-06T02:32:10.931Z,21.60
2018-02-06T02:34:38.494Z,24.40
2018-02-06T02:37:06.042Z,23.40
2018-02-06T02:39:34.387Z,24.73
2018-02-06T04:40:12.048Z,19.97
2018-02-06T04:42:40.394Z,16.50
2018-02-06T04:45:07.943Z,14.37
2018-02-06T04:47:35.531Z,11.37
2018-02-06T04:50:03.140Z,14.13
2018-02-06T04:52:30.714Z,11.80
2018-02-06T04:54:58.264Z,13.47
2018-02-06T04:57:26.596Z,9.07
2018-02-06T04:59:54.136Z,7.50
2018-02-06T05:02:21.698Z,13.70
2018-02-06T05:04:49.245Z,13.90
2018-02-06T05:07:16.820Z,10.60
2018-02-06T05:09:44.367Z,8.80
2018-02-06T05:12:11.944Z,8.60
2018-02-06T05:14:39.502Z,11.83
2018-02-06T05:17:07.049Z,10.37
2018-02-06T05:19:35.390Z,14.20
2018-02-06T05:22:02.936Z,9.50
2018-02-06T05:24:31.270Z,10.37
2018-02-06T05:26:58.815Z,11.03
2018-02-06T05:29:27.185Z,9.33
2018-02-06T05:31:54.736Z,10.20
2018-02-06T05:34:22.317Z,12.23
2018-02-06T05:36:49.858Z,8.87
2018-02-06T05:39:17.436Z,11.10
2018-02-06T05:41:44.997Z,11.43
2018-02-06T05:44:12.567Z,7.73
2018-02-06T05:46:40.125Z,11.43
2018-02-06T05:49:07.700Z,10.83
2018-02-06T05:51:35.295Z,12.80
2018-02-06T05:54:02.872Z,19.20
2018-02-06T05:56:30.424Z,13.63
2018-02-06T05:58:57.976Z,10.00
2018-02-06T06:01:25.543Z,18.63
2018-02-06T06:03:53.092Z,10.53
2018-02-06T06:06:21.423Z,11.30
2018-02-06T06:08:48.969Z,12.57
2018-02-06T06:11:16.540Z,11.10
2018-02-06T06:13:44.083Z,6.07
2018-02-06T06:16:11.654Z,8.37
2018-02-06T06:18:39.199Z,9.03
2018-02-06T06:21:06.772Z,7.60
2018-02-06T06:23:34.336Z,10.07
2018-02-06T06:26:01.926Z,12.90
2018-02-06T06:28:29.507Z,16.70
2018-02-06T06:30:57.065Z,8.13
2018-02-06T06:33:24.620Z,10.37
2018-02-06T06:35:52.194Z,11.60
2018-02-06T06:38:19.748Z,16.37
2018-02-06T06:40:47.349Z,9.53
2018-02-06T06:43:14.910Z,11.37
2018-02-06T06:45:42.631Z,11.93
2018-02-06T06:48:10.294Z,18.90
2018-02-06T06:50:38.216Z,24.20
2018-02-06T06:53:05.823Z,19.93
2018-02-06T06:55:33.377Z,30.23
2018-02-06T06:58:00.962Z,20.33
2018-02-06T07:00:28.508Z,13.63
2018-02-06T07:02:56.850Z,19.73
2018-02-06T07:05:24.409Z,11.27
2018-02-06T07:07:51.976Z,13.23
2018-02-06T07:10:20.283Z,16.70
2018-02-06T07:12:47.859Z,19.30
2018-02-06T07:15:16.205Z,26.10
2018-02-06T07:17:43.776Z,22.57
2018-02-06T07:20:11.345Z,20.30
2018-02-06T07:22:38.916Z,18.70
2018-02-06T07:25:07.233Z,20.20
2018-02-06T07:27:34.775Z,12.33
2018-02-06T07:30:02.340Z,14.07
2018-02-06T07:32:29.893Z,11.10
2018-02-06T07:34:57.469Z,11.50
2018-02-06T07:37:25.026Z,13.53
2018-02-06T07:39:52.592Z,9.50
2018-02-06T07:42:20.149Z,10.40
2018-02-06T07:44:47.724Z,12.77
2018-02-06T07:47:15.272Z,7.73
2018-02-06T07:49:43.607Z,14.50
2018-02-06T07:52:11.153Z,11.87
2018-02-06T07:54:39.489Z,9.13
2018-02-06T07:57:07.036Z,7.50
2018-02-06T07:59:35.370Z,8.70
2018-02-06T08:02:02.945Z,7.70
2018-02-06T08:04:30.526Z,10.10
2018-02-06T08:06:58.081Z,13.40
2018-02-06T08:09:25.668Z,7.27
2018-02-06T08:11:53.207Z,10.30
2018-02-06T08:14:20.759Z,12.63
2018-02-06T08:16:48.330Z,11.63
2018-02-06T08:19:16.655Z,7.50
2018-02-06T08:21:44.228Z,6.97
2018-02-06T08:24:11.780Z,8.77
2018-02-06T08:26:39.353Z,12.20
2018-02-06T08:29:06.911Z,9.67
2018-02-06T08:31:34.467Z,9.63
2018-02-06T08:34:02.030Z,10.20
2018-02-06T08:36:30.372Z,10.37
2018-02-06T08:38:57.925Z,10.90
2018-02-06T08:41:26.325Z,7.53
2018-02-06T08:43:54.641Z,10.87
2018-02-06T08:46:22.208Z,6.10
2018-02-06T08:48:50.510Z,8.83
2018-02-06T08:51:18.835Z,7.83
2018-02-06T08:53:46.400Z,6.80
2018-02-06T08:56:15.848Z,12.23
2018-02-06T08:58:43.397Z,15.13
2018-02-06T09:01:10.973Z,10.43
2018-02-06T09:03:38.530Z,10.87
2018-02-06T09:06:06.117Z,8.43
2018-02-06T09:08:33.667Z,10.00
2018-02-06T09:11:01.235Z,14.40
2018-02-06T09:13:29.580Z,12.90
2018-02-06T09:15:57.130Z,10.33
2018-02-06T09:18:24.696Z,12.10
2018-02-06T09:20:53.000Z,7.73
2018-02-06T09:23:21.363Z,12.03
2018-02-06T09:25:48.933Z,11.90
2018-02-06T09:28:16.565Z,10.57
2018-02-06T09:30:44.891Z,13.27
2018-02-06T09:33:12.457Z,13.40
2018-02-06T09:35:40.775Z,20.70
2018-02-06T09:38:08.350Z,21.13
2018-02-06T09:40:36.002Z,26.93
2018-02-06T09:43:03.587Z,22.97
2018-02-06T09:45:31.230Z,21.57
2018-02-06T09:47:59.562Z,18.93
2018-02-06T09:50:27.145Z,19.87
2018-02-06T09:52:55.453Z,14.80
2018-02-06T09:55:23.254Z,19.00
2018-02-06T09:57:50.825Z,13.87
2018-02-06T10:00:18.420Z,13.50
2018-02-06T10:02:45.968Z,19.63
2018-02-06T10:05:13.548Z,14.27
2018-02-06T10:07:41.084Z,14.50
2018-02-06T10:10:08.652Z,12.60
2018-02-06T10:12:36.191Z,13.73
2018-02-06T10:15:04.537Z,13.00
2018-02-06T10:17:32.080Z,15.87
2018-02-06T10:20:00.410Z,10.80
2018-02-06T10:22:27.943Z,20.67
2018-02-06T10:24:55.491Z,11.87
2018-02-06T10:27:23.019Z,15.90
2018-02-06T10:29:50.587Z,15.07
2018-02-06T10:32:18.126Z,18.30
2018-02-06T10:34:45.694Z,17.73
2018-02-06T10:37:13.227Z,13.40
2018-02-06T10:39:41.127Z,21.30
2018-02-06T10:42:08.658Z,13.40
2018-02-06T10:44:36.211Z,17.27
2018-02-06T10:47:03.739Z,14.50
2018-02-06T10:49:31.275Z,16.97
2018-02-06T10:51:58.832Z,10.83
2018-02-06T10:54:26.368Z,17.40
2018-02-06T10:56:53.934Z,19.07
2018-02-06T10:59:22.235Z,10.17
2018-02-06T11:01:50.552Z,18.93
2018-02-06T11:04:18.847Z,14.37
2018-02-06T11:06:47.158Z,15.47
2018-02-06T11:09:14.692Z,14.77
2018-02-06T11:11:42.242Z,19.33
2018-02-06T11:14:10.698Z,13.50
2018-02-06T11:16:38.247Z,13.83
2018-02-06T11:19:05.782Z,12.90
2018-02-06T11:21:34.099Z,12.63
2018-02-06T11:24:01.643Z,10.30
2018-02-06T11:26:29.603Z,9.00
2018-02-06T11:28:57.135Z,10.57
2018-02-06T11:31:24.665Z,12.23
2018-02-06T11:33:52.987Z,14.17
2018-02-06T11:36:20.945Z,11.63
2018-02-06T11:38:48.501Z,12.30
2018-02-06T11:41:16.807Z,6.57
2018-02-06T11:43:45.132Z,10.47
2018-02-06T11:46:12.677Z,9.30
2018-02-06T11:48:40.251Z,10.43
2018-02-06T11:51:08.569Z,15.10
2018-02-06T11:53:36.123Z,13.60
2018-02-06T11:56:03.671Z,12.90
2018-02-06T11:58:31.232Z,10.87
2018-02-06T12:00:59.523Z,14.70
2018-02-06T12:03:27.852Z,12.53
2018-02-06T12:05:55.392Z,9.50
2018-02-06T12:08:22.952Z,18.37
2018-02-06T12:10:50.494Z,16.20
2018-02-06T12:13:18.812Z,10.13
2018-02-06T12:15:46.374Z,19.90
2018-02-06T12:18:13.914Z,11.30
2018-02-06T12:20:41.476Z,14.03
2018-02-06T12:23:09.018Z,8.63
2018-02-06T12:25:37.339Z,12.70
2018-02-06T12:28:04.903Z,11.13
2018-02-06T12:30:32.476Z,13.53
2018-02-06T12:33:00.003Z,14.60
2018-02-06T12:35:27.563Z,18.67
2018-02-06T12:37:55.876Z,13.90
2018-02-06T12:40:24.195Z,13.10
2018-02-06T12:42:51.735Z,17.40
2018-02-06T12:45:19.307Z,16.20
2018-02-06T12:47:46.851Z,20.63
2018-02-06T12:50:14.419Z,14.53
2018-02-06T12:52:41.955Z,17.10
2018-02-06T12:55:09.534Z,15.73
2018-02-06T12:57:37.067Z,15.43
2018-02-06T13:00:04.599Z,17.97
2018-02-06T13:02:32.162Z,12.03
2018-02-06T13:04:59.696Z,14.27
2018-02-06T13:07:28.116Z,13.00
2018-02-06T13:09:55.724Z,15.90
2018-02-06T13:12:23.314Z,15.10
2018-02-06T13:14:50.861Z,13.37
2018-02-06T13:17:18.429Z,9.90
2018-02-06T13:19:45.961Z,16.27
2018-02-06T13:22:13.510Z,12.93
2018-02-06T13:24:41.815Z,13.23
2018-02-06T13:27:10.131Z,8.73
2018-02-06T13:29:37.666Z,11.40
2018-02-06T13:32:05.210Z,7.47
2018-02-06T13:34:32.763Z,10.33
2018-02-06T13:37:02.083Z,9.83
2018-02-06T13:39:29.616Z,7.40
2018-02-06T13:41:57.189Z,11.80
2018-02-06T13:44:24.724Z,9.20
2018-02-06T13:46:52.254Z,11.10
2018-02-06T13:49:19.948Z,13.97
2018-02-06T13:51:47.494Z,8.73
2018-02-06T13:54:15.857Z,10.77
2018-02-06T13:56:43.397Z,11.87
2018-02-06T13:59:10.942Z,16.00
2018-02-06T14:01:38.476Z,11.90
2018-02-06T14:04:06.068Z,11.80
2018-02-06T14:06:33.621Z,10.83
2018-02-06T14:09:01.948Z,14.60
2018-02-06T14:11:29.508Z,10.13
2018-02-06T14:13:57.153Z,18.30
2018-02-06T14:16:24.969Z,13.57
2018-02-06T14:18:52.749Z,16.63
2018-02-06T14:21:20.616Z,25.33
2018-02-06T14:23:48.275Z,15.70
2018-02-06T14:26:16.042Z,19.27
2018-02-06T14:28:43.651Z,22.77
2018-02-06T14:31:11.237Z,21.63
2018-02-06T14:33:38.777Z,20.80
2018-02-06T14:36:06.342Z,19.23
2018-02-06T14:38:33.888Z,23.60
2018-02-06T14:41:01.518Z,30.67
2018-02-06T14:43:29.061Z,16.20
2018-02-06T14:45:56.634Z,27.07
2018-02-06T14:48:24.184Z,31.10
2018-02-06T14:50:51.757Z,29.80
2018-02-06T14:53:19.309Z,26.33
2018-02-06T14:55:46.898Z,23.17
2018-02-06T14:58:14.443Z,25.47
2018-02-06T15:00:42.015Z,30.50
2018-02-06T15:03:10.324Z,31.87
2018-02-06T15:05:38.660Z,32.23
2018-02-06T15:08:06.969Z,27.53
2018-02-06T15:10:34.503Z,26.40
2018-02-06T15:13:02.837Z,34.13
2018-02-06T15:15:30.385Z,33.13
2018-02-06T15:17:58.720Z,37.67
2018-02-06T15:20:26.281Z,25.20
2018-02-06T15:22:54.615Z,30.80
2018-02-06T15:25:22.164Z,28.63
2018-02-06T15:27:50.496Z,30.83
2018-02-06T15:30:18.046Z,37.20
2018-02-06T15:32:46.401Z,35.13
2018-02-06T15:35:13.952Z,32.93
2018-02-06T15:37:41.528Z,34.63
2018-02-06T15:40:09.075Z,27.70
2018-02-06T15:42:36.650Z,29.37
2018-02-06T15:45:04.205Z,33.10
2018-02-06T15:47:31.772Z,30.67
2018-02-06T15:49:59.328Z,39.60
2018-02-06T15:52:26.934Z,38.17
2018-02-06T15:54:54.476Z,38.33
2018-02-06T15:57:22.280Z,35.70
2018-02-06T15:59:49.856Z,36.73
2018-02-06T16:02:17.404Z,55.53
2018-02-06T16:04:44.963Z,53.13
2018-02-06T16:07:12.510Z,29.93
2018-02-06T16:09:40.108Z,29.80
2018-02-06T16:12:07.663Z,29.40
2018-02-06T16:14:35.999Z,34.07
2018-02-06T16:17:03.545Z,31.63
2018-02-06T16:19:31.879Z,30.43
2018-02-06T16:21:59.429Z,29.07
2018-02-06T16:24:27.769Z,53.07
2018-02-06T16:26:55.320Z,77.80
2018-02-06T16:29:23.647Z,68.40
2018-02-06T16:31:51.248Z,51.30
2018-02-06T16:34:18.824Z,48.70
2018-02-06T16:36:46.378Z,52.07
2018-02-06T16:39:14.719Z,51.60
2018-02-06T16:41:42.292Z,41.73
2018-02-06T16:44:09.860Z,50.50
2018-02-06T16:46:37.421Z,48.13
2018-02-06T16:49:05.013Z,32.70
2018-02-06T16:51:33.329Z,35.13
2018-02-06T16:54:00.886Z,42.00
2018-02-06T16:56:28.454Z,33.37
2018-02-06T16:58:56.777Z,32.43
2018-02-06T17:01:24.343Z,40.97
2018-02-06T17:03:51.901Z,47.43
2018-02-06T17:06:19.458Z,52.40
2018-02-06T17:08:47.022Z,31.70
2018-02-06T17:11:15.352Z,37.37
2018-02-06T17:13:42.901Z,35.47
2018-02-06T17:16:11.243Z,31.60
2018-02-06T17:18:38.791Z,36.20
2018-02-06T17:21:07.133Z,33.87
2018-02-06T17:23:34.694Z,54.70
2018-02-06T17:26:02.292Z,56.13
2018-02-06T17:28:29.840Z,58.87
2018-02-06T17:30:58.192Z,48.17
2018-02-06T17:33:25.742Z,47.43
2018-02-06T17:35:53.405Z,43.97
2018-02-06T17:38:20.933Z,44.33
2018-02-06T17:40:48.523Z,39.90
2018-02-06T17:43:16.089Z,61.90
2018-02-06T17:45:43.673Z,158.63
2018-02-06T17:48:11.230Z,237.20
2018-02-06T17:50:39.551Z,136.00
2018-02-06T17:53:07.125Z,83.63
2018-02-06T17:55:35.439Z,63.53
2018-02-06T17:58:03.007Z,51.73
2018-02-06T18:00:31.333Z,38.17
2018-02-06T18:02:58.911Z,44.33
2018-02-06T18:05:26.462Z,57.37
2018-02-06T18:07:54.816Z,48.17
2018-02-06T18:10:22.404Z,46.63
2018-02-06T18:12:49.973Z,41.10
2018-02-06T18:15:17.518Z,30.50
2018-02-06T18:17:45.087Z,31.10
2018-02-06T18:20:12.632Z,30.87
2018-02-06T18:22:40.249Z,27.10
2018-02-06T18:25:07.835Z,30.27
2018-02-06T18:27:35.408Z,27.47
2018-02-06T18:30:02.973Z,27.20
2018-02-06T18:32:30.523Z,35.07
2018-02-06T18:34:58.857Z,36.13
2018-02-06T18:37:26.401Z,32.50
2018-02-06T18:39:55.576Z,30.80
2018-02-06T18:42:23.133Z,24.70
2018-02-06T18:44:50.701Z,32.00
2018-02-06T18:47:19.021Z,30.40
2018-02-06T18:49:46.593Z,23.73
2018-02-06T18:52:15.078Z,30.87
2018-02-06T18:54:49.116Z,36.03
2018-02-06T18:57:16.736Z,56.57
2018-02-06T18:59:44.315Z,49.37
2018-02-06T19:02:12.629Z,45.87
2018-02-06T19:04:40.209Z,45.47
2018-02-06T19:07:07.759Z,29.90
2018-02-06T19:09:35.340Z,32.13
2018-02-06T19:12:02.883Z,34.00
2018-02-06T19:14:30.564Z,49.23
2018-02-06T19:16:58.110Z,34.70
2018-02-06T19:19:26.424Z,45.93
2018-02-06T19:21:54.036Z,56.50
2018-02-06T19:24:21.576Z,44.33
2018-02-06T19:26:49.930Z,28.43
2018-02-06T19:29:17.473Z,30.57
2018-02-06T19:31:45.857Z,24.23
2018-02-06T19:34:14.139Z,29.33
2018-02-06T19:36:41.730Z,36.63
2018-02-06T19:39:09.271Z,40.70
2018-02-06T19:41:36.857Z,38.73
2018-02-06T19:44:04.391Z,44.57
2018-02-06T19:46:31.960Z,43.67
2018-02-06T19:48:59.508Z,38.47
2018-02-06T19:51:31.573Z,33.00
2018-02-06T19:53:59.212Z,39.53
2018-02-06T19:56:28.153Z,44.93
2018-02-06T19:58:57.175Z,38.40
2018-02-06T20:01:28.263Z,28.20
2018-02-06T20:03:57.513Z,32.30
2018-02-06T20:06:27.709Z,23.87
2018-02-06T20:08:58.422Z,33.87
2018-02-06T20:11:28.676Z,33.27
2018-02-06T20:13:58.917Z,29.40
2018-02-06T20:16:29.882Z,37.43
2018-02-06T20:18:58.956Z,34.07
2018-02-06T20:21:28.068Z,33.03
2018-02-06T20:23:58.346Z,27.30
2018-02-06T20:26:28.490Z,23.97
2018-02-06T20:28:58.670Z,29.50
2018-02-06T20:31:30.849Z,24.83
2018-02-06T20:33:59.177Z,24.23
2018-02-06T20:36:29.789Z,21.00
2018-02-06T20:39:02.721Z,26.97
2018-02-06T20:41:37.039Z,28.70
2018-02-06T20:44:05.184Z,28.73
2018-02-06T20:46:32.880Z,30.13
2018-02-06T20:49:00.476Z,27.80
2018-02-06T20:51:28.023Z,24.00
2018-02-06T20:53:59.466Z,29.53
2018-02-06T20:56:27.793Z,35.40
2018-02-06T20:59:01.384Z,35.53
2018-02-06T21:01:30.867Z,44.43
2018-02-06T21:03:59.261Z,37.13
2018-02-06T21:06:26.841Z,42.07
2018-02-06T21:08:54.427Z,38.07
2018-02-06T21:11:21.994Z,38.07
2018-02-06T21:13:49.553Z,37.40
2018-02-06T21:16:17.893Z,34.53
2018-02-06T21:18:45.446Z,40.20
2018-02-06T21:21:13.794Z,31.23
2018-02-06T21:23:41.337Z,36.27
2018-02-06T21:26:09.681Z,46.60
2018-02-06T21:28:37.225Z,40.53
2018-02-06T21:31:05.564Z,33.73
2018-02-06T21:33:33.115Z,54.80
2018-02-06T21:36:01.460Z,81.67
2018-02-06T21:38:29.012Z,58.63
2018-02-06T21:40:56.591Z,56.17
2018-02-06T21:43:24.153Z,64.23
2018-02-06T21:45:52.540Z,85.50
2018-02-06T21:48:20.098Z,48.63
2018-02-06T21:50:47.665Z,52.17
2018-02-06T21:53:15.976Z,43.67
2018-02-06T21:55:43.519Z,41.73
2018-02-06T21:58:11.847Z,55.37
2018-02-06T22:00:39.406Z,54.30
2018-02-06T22:03:06.967Z,41.60
2018-02-06T22:05:34.503Z,44.13
2018-02-06T22:08:02.084Z,41.10
2018-02-06T22:10:29.628Z,35.87
2018-02-06T22:12:57.966Z,41.80
2018-02-06T22:15:25.519Z,47.57
2018-02-06T22:17:53.865Z,49.60
2018-02-06T22:20:21.418Z,51.80
2018-02-06T22:22:49.749Z,38.70
2018-02-06T22:25:17.289Z,49.63
2018-02-06T22:27:44.860Z,35.40
2018-02-06T22:30:12.414Z,39.80
2018-02-06T22:32:40.005Z,35.27
2018-02-06T22:35:07.578Z,47.13
2018-02-06T22:37:35.134Z,39.47
2018-02-06T22:40:03.468Z,39.17
2018-02-06T22:42:31.355Z,43.30
2018-02-06T22:44:59.382Z,46.60
2018-02-06T22:47:26.947Z,35.37
2018-02-06T22:49:54.521Z,37.30
2018-02-06T22:52:22.090Z,50.30
2018-02-06T22:54:49.668Z,34.60
2018-02-06T22:57:17.225Z,36.67
2018-02-06T22:59:44.792Z,45.63
2018-02-06T23:02:18.984Z,37.13
2018-02-06T23:04:46.769Z,32.10
2018-02-06T23:07:14.312Z,38.10
2018-02-06T23:09:41.887Z,30.93
2018-02-06T23:12:09.428Z,36.50
2018-02-06T23:14:36.993Z,38.00
2018-02-06T23:17:05.311Z,38.47
2018-02-06T23:19:32.892Z,38.57
2018-02-06T23:22:00.448Z,39.80
2018-02-06T23:24:28.025Z,35.40
2018-02-06T23:26:55.584Z,35.00
2018-02-06T23:29:23.896Z,44.20
2018-02-06T23:31:51.465Z,37.80
2018-02-06T23:34:19.007Z,36.23
2018-02-06T23:36:47.342Z,37.60
2018-02-06T23:39:14.900Z,41.50
2018-02-06T23:41:42.479Z,35.10
2018-02-06T23:44:10.800Z,35.57
2018-02-06T23:46:38.383Z,41.47
2018-02-06T23:49:05.927Z,40.60
2018-02-06T23:51:33.503Z,49.87
2018-02-06T23:54:01.056Z,41.07
2018-02-06T23:56:28.649Z,43.07
2018-02-06T23:58:56.193Z,38.00
